Tiempo atmosférico en la estación meteorológica de Algarrobo, Málaga (80 m.)

Fecha
DESCASC
Temp. máxima en grados centígrados (hora)
DESCASC
Temp. mínima en grados centígrados (hora)
DESCASC
Temp. media en grados centígrados
DESCASC
Racha de viento máxima en m/sg (hora)
DESCASC
Velocidad máxima media en intervalos de 10 minutos(hora)
DESCASC
Precipitaciones diarias en mm
DESCASC
Precipitaciones de 00:00 a 06:00 en mm
DESCASC
Precipitaciones de 06:00 a 12:00 en mm
DESCASC
Precipitaciones de 12:00 a 18:00 en mm
DESCASC
Precipitaciones de 18:00 a 24:00 en mm
DESCASC
24-09-2017 27.1 (13:30) 18.2 (07:40) 22.7 5.28 (13:40) 3.33 (13:40) 0 0 0 0 0
23-09-2017 27.4 (12:10) 19.4 (07:00) 23.4 6.67 (13:50) 4.44 (12:30) 0 0 0 0 0
22-09-2017 27.1 (13:20) 16.5 (07:10) 21.8 7.22 (14:00) 3.89 (15:00) 0 0 0 0 0
21-09-2017 27.2 (13:00) 15.9 (00:00) 21.6 5.28 (13:40) 3.89 (13:40) 0 0 0 0 0
20-09-2017 25.6 (16:00) 15.8 (00:00) 20.7 7.22 (14:30) 4.72 (14:30) 0 0 0 0 0
19-09-2017 26.3 (13:00) 17.7 (00:00) 22 8.61 (00:10) 5 (00:10) 0 0 0 0 0
18-09-2017 30.3 (17:00) 14 (00:00) 22.1 13.33 (15:20) 8.33 (14:50) 0 0 0 0 0
17-09-2017 25.3 (16:30) 14.6 (00:00) 19.9 6.11 (14:30) 4.17 (12:30) 0 0 0 0 0
16-09-2017 24.7 (17:50) 14.8 (00:00) 19.8 11.11 (16:40) 6.39 (16:30) 0 0 0 0 0
15-09-2017 26.7 (16:30) 20.1 (00:00) 23.4 10.83 (18:40) 6.94 (12:40) 0 0 0 0 0
14-09-2017 29.5 (18:10) 17.3 (00:00) 23.4 6.39 (22:20) 3.33 (14:00) 0 0 0 0 0
13-09-2017 28.2 (15:10) 18.7 (00:00) 23.5 6.11 (00:20) 4.17 (12:30) 0 0 0 0 0
12-09-2017 30.2 (19:10) 16.9 (00:00) 23.6 6.67 (23:50) 4.17 (13:50) 0 0 0 0 0
11-09-2017 27.9 (14:00) 15.8 (00:00) 21.8 5.28 (14:40) 3.61 (14:10) 0 0 0 0 0
10-09-2017 29.3 (13:50) 19.3 (00:00) 24.3 11.67 (00:40) 8.06 (01:00) 0 0 0 0 0
09-09-2017 31.5 (17:40) 16.8 (00:00) 24.1 11.94 (23:20) 8.06 (17:20) 0 0 0 0 0
08-09-2017 27.8 (15:20) 19.9 (00:00) 23.8 5.83 (16:20) 3.61 (14:20) 0 0 0 0 0
07-09-2017 28.1 (16:20) 20.2 (00:00) 24.2 6.94 (15:00) 4.17 (15:20) 0 0 0 0 0
06-09-2017 28.6 (12:30) 19.7 (00:00) 24.2 5.56 (13:50) 3.61 (14:30) 0 0 0 0 0
05-09-2017 28.6 (16:20) 22.4 (00:00) 25.5 10 (11:20) 4.72 (11:50) 0 0 0 0 0
04-09-2017 31.7 (20:40) 19.3 (00:00) 25.5 12.5 (15:50) 8.06 (15:00) 0 0 0 0 0
03-09-2017 28.5 (16:30) 21 (00:00) 24.8 4.72 (13:30) 3.33 (13:20) 0 0 0 0 0
02-09-2017 28.4 (14:00) 23.4 (00:00) 25.9 10.28 (11:20) 5.28 (16:40) 0 0 0 0 0
01-09-2017 30.7 (16:10) 20.8 (00:00) 25.8 6.11 (17:40) 4.17 (16:50) 0 0 0 0 0
31-08-2017 28.5 (16:10) 19.2 (00:00) 23.9 5.83 (15:00) 3.89 (15:00) 0 0 0 0 0
30-08-2017 24.8 (11:50) 20.1 (00:00) 22.4 9.17 (14:20) 5 (14:20) 0.2 0 0 0.2 0
29-08-2017 26.3 (16:30) 18.7 (00:00) 22.5 6.11 (13:00) 4.17 (15:30) 0 0 0 0 0
28-08-2017 27.8 (13:40) 22.7 (00:00) 25.3 11.39 (01:50) 6.39 (01:50) 10.2 9.6 0.2 0.4 0
27-08-2017 29.9 (16:40) 24.1 (00:00) 27 10 (23:59) 5.56 (17:30) 0.2 0 0 0.2 0
26-08-2017 29.4 (14:50) 21.3 (00:00) 25.3 6.11 (14:40) 4.44 (14:20) 0 0 0 0 0

Gráficas

Temp. máximas Temp. mínimas Temp. medias Precipitaciones Rachas de viento máximas Velocidades máximas media en intervalos de 10 minutos

Datos horarios

Fecha y hora oficial Temperatura (ºC) Velocidad del viento (km/h) Dirección del viento Racha (km/h) Dirección de racha Precipitación (mm) Presión (hPa) Tendencia (hPa) Humedad (%)
2017-09-24 23:00:00 19.9 2 Norte 4 Norte 0 -- -- 86
2017-09-24 22:00:00 20.8 0 Calma 3 Oeste 0 -- -- 82
2017-09-24 21:00:00 22.3 0 Calma 5 Sudoeste 0 -- -- 76
2017-09-24 20:00:00 24.1 4 Sudoeste 8 Sudoeste 0 -- -- 71
2017-09-24 19:00:00 25.2 5 Oeste 13 Sudoeste 0 -- -- 68
2017-09-24 18:00:00 26.4 8 Sudoeste 15 Sudoeste 0 -- -- 61
2017-09-24 17:00:00 26.5 10 Sur 17 Sudoeste 0 -- -- 60
2017-09-24 16:00:00 26.4 11 Sudoeste 19 Sur 0 -- -- 61
2017-09-24 15:00:00 27 10 Sur 18 Sur 0 -- -- 59
2017-09-24 14:00:00 26.8 12 Sudoeste 19 Sudoeste 0 -- -- 58
2017-09-24 13:00:00 26.7 12 Sur 17 Sur 0 -- -- 56
2017-09-24 12:00:00 26.1 10 Sur 18 Sudoeste 0 -- -- 57
2017-09-24 11:00:00 25.1 6 Sudoeste 13 Sudoeste 0 -- -- 59
2017-09-24 10:00:00 22.3 8 Norte 11 Norte 0 -- -- 67
2017-09-24 09:00:00 18.7 4 Norte 9 Nordeste 0 -- -- 81
2017-09-24 08:00:00 18.2 4 Nordeste 8 Norte 0 -- -- 86
2017-09-24 07:00:00 18.6 4 Norte 7 Nordeste 0 -- -- 85
2017-09-24 06:00:00 18.6 4 Norte 8 Norte 0 -- -- 83
2017-09-24 05:00:00 18.7 3 Nordeste 8 Norte 0 -- -- 79
2017-09-24 04:00:00 19.1 5 Norte 8 Norte 0 -- -- 79
2017-09-24 03:00:00 19.5 5 Norte 7 Norte 0 -- -- 78
2017-09-24 02:00:00 19.4 4 Norte 7 Norte 0 -- -- 76
2017-09-24 01:00:00 19.5 4 Norte 8 Norte 0 -- -- 76
2017-09-24 00:00:00 19.7 3 Norte 5 Norte 0 -- -- 76
2017-09-23 23:00:00 20.4 3 Norte 5 Norte 0 -- -- 75
2017-09-23 22:00:00 21.5 2 Este 15 Sudeste 0 -- -- 71
2017-09-23 21:00:00 22.6 5 Sudeste 16 Sudeste 0 -- -- 70
2017-09-23 20:00:00 23.7 8 Sudeste 18 Sudeste 0 -- -- 66
2017-09-23 19:00:00 24.6 9 Sur 22 Sudeste 0 -- -- 65
2017-09-23 18:00:00 25.3 10 Sur 18 Sur 0 -- -- 61
2017-09-23 17:00:00 26.6 9 Sur 19 Sur 0 -- -- 56
2017-09-23 16:00:00 26.7 10 Sur 22 Sudeste 0 -- -- 54
2017-09-23 15:00:00 27.3 12 Sur 23 Sur 0 -- -- 51
2017-09-23 14:00:00 27 12 Sur 24 Sudeste 0 -- -- 52
2017-09-23 13:00:00 26.9 15 Sur 23 Sur 0 -- -- 56
2017-09-23 12:00:00 26.9 12 Sur 23 Sudeste 0 -- -- 50
2017-09-23 11:00:00 25.7 4 Noroeste 10 Sudeste 0 -- -- 56
2017-09-23 10:00:00 22.9 5 Norte 8 Norte 0 -- -- 72
2017-09-23 09:00:00 20.8 3 Norte 5 Norte 0 -- -- 84
2017-09-23 08:00:00 19.9 0 Calma 5 Nordeste 0 -- -- 87
2017-09-23 07:00:00 19.4 3 Nordeste 6 Norte 0 -- -- 88
2017-09-23 06:00:00 19.8 3 Nordeste 8 Nordeste 0 -- -- 86
2017-09-23 05:00:00 20.2 3 Norte 6 Norte 0 -- -- 84
2017-09-23 04:00:00 21.6 2 Nordeste 18 Sudeste 0 -- -- 80
2017-09-23 03:00:00 22.3 8 Sudeste 19 Sudeste 0 -- -- 76
2017-09-23 02:00:00 22.6 3 Sudeste 14 Sudeste 0 -- -- 79
2017-09-23 01:00:00 22.8 6 Sudeste 13 Sudeste 0 -- -- 79
2017-09-23 00:00:00 23 6 Sudeste 19 Sudeste 0 -- -- 78
2017-09-22 23:00:00 23.3 5 Sudeste 19 Sudeste 0 -- -- 76
2017-09-22 22:00:00 23.3 8 Sudeste 17 Este 0 -- -- 74
2017-09-22 21:00:00 23.2 6 Sudeste 20 Sudeste 0 -- -- 76
2017-09-22 20:00:00 23.7 8 Sudeste 19 Sudeste 0 -- -- 72
2017-09-22 19:00:00 24.7 12 Sur 22 Sur 0 -- -- 68
2017-09-22 18:00:00 25.6 11 Sur 21 Sudeste 0 -- -- 64
2017-09-22 17:00:00 26.6 13 Sur 24 Sur 0 -- -- 62
2017-09-22 16:00:00 26.6 13 Sur 21 Sur 0 -- -- 61
2017-09-22 15:00:00 26.3 14 Sur 24 Sur 0 -- -- 62
2017-09-22 14:00:00 26.4 11 Sur 26 Sur 0 -- -- 61
2017-09-22 13:00:00 26.2 12 Sur 19 Sur 0 -- -- 61
2017-09-22 12:00:00 25.1 10 Sudoeste 14 Sudoeste 0 -- -- 64
2017-09-22 11:00:00 24.8 7 Sur 10 Sudoeste 0 -- -- 55
2017-09-22 10:00:00 21.3 0 Calma 7 Norte 0 -- -- 64
2017-09-22 09:00:00 18.4 4 Norte 12 Norte 0 -- -- 71
2017-09-22 08:00:00 17.3 4 Nordeste 8 Norte 0 -- -- 79
2017-09-22 07:00:00 16.6 3 Norte 9 Norte 0 -- -- 79
2017-09-22 06:00:00 17.2 6 Norte 11 Norte 0 -- -- 71
2017-09-22 05:00:00 17.9 5 Norte 8 Norte 0 -- -- 78
2017-09-22 04:00:00 18.2 5 Norte 7 Norte 0 -- -- 74
2017-09-22 03:00:00 17.8 4 Norte 7 Norte 0 -- -- 76
2017-09-22 02:00:00 18.6 4 Norte 8 Norte 0 -- -- 83
2017-09-22 01:00:00 18.9 4 Norte 8 Norte 0 -- -- 80
2017-09-22 00:00:00 19.1 3 Nordeste 6 Norte 0 -- -- 77
2017-09-21 23:00:00 19.4 4 Norte 5 Norte 0 -- -- 80
2017-09-21 22:00:00 20.1 2 Norte 3 Nordeste 0 -- -- 80
2017-09-21 21:00:00 21.4 2 Sudeste 4 Sur 0 -- -- 72
2017-09-21 20:00:00 23.2 0 Calma 6 Sudoeste 0 -- -- 64
2017-09-21 19:00:00 24.7 5 Sudoeste 11 Oeste 0 -- -- 53
2017-09-21 18:00:00 25.8 8 Sudoeste 14 Sudoeste 0 -- -- 46
2017-09-21 17:00:00 26.3 10 Sudoeste 18 Sudoeste 0 -- -- 43
2017-09-21 16:00:00 26.4 12 Sudoeste 18 Sudoeste 0 -- -- 49
2017-09-21 15:00:00 25.7 12 Sudoeste 19 Sur 0 -- -- 53
2017-09-21 14:00:00 26.5 12 Sudoeste 19 Sudoeste 0 -- -- 46
2017-09-21 13:00:00 27.2 9 Sudoeste 13 Sudoeste 0 -- -- 41
2017-09-21 12:00:00 25.8 8 Sudoeste 13 Sur 0 -- -- 49
2017-09-21 11:00:00 25.6 5 Sudoeste 8 Sur 0 -- -- 40
2017-09-21 10:00:00 22.1 4 Norte 13 Norte 0 -- -- 50
2017-09-21 09:00:00 17.1 5 Norte 8 Nordeste 0 -- -- 69
2017-09-21 08:00:00 16 4 Norte 7 Norte 0 -- -- 76
2017-09-21 07:00:00 16 3 Norte 5 Norte 0 -- -- 71
2017-09-21 06:00:00 16.3 3 Norte 10 Norte 0 -- -- 66
2017-09-21 05:00:00 -- -- -- -- -- -- -- -- --
2017-09-21 04:00:00 17.5 5 Norte 9 Norte 0 -- -- 69
2017-09-21 03:00:00 17.2 4 Norte 6 Norte 0 -- -- 74
2017-09-21 02:00:00 17.8 5 Norte 10 Norte 0 -- -- 73
2017-09-21 01:00:00 18.1 6 Norte 11 Norte 0 -- -- 72
2017-09-21 00:00:00 18.2 4 Norte 7 Norte 0 -- -- 87
2017-09-20 23:00:00 18.7 4 Norte 6 Norte 0 -- -- 88
2017-09-20 22:00:00 19.5 4 Nordeste 6 Nordeste 0 -- -- 87
2017-09-20 21:00:00 20.9 0 Calma 4 Sur 0 -- -- 81
2017-09-20 20:00:00 22.6 3 Sudoeste 8 Sur 0 -- -- 78
2017-09-20 19:00:00 23.7 5 Sudoeste 15 Sur 0 -- -- 73
2017-09-20 18:00:00 24.9 8 Sur 22 Sudeste 0 -- -- 69
2017-09-20 17:00:00 25.6 14 Sur 24 Sur 0 -- -- 64
2017-09-20 16:00:00 25.6 14 Sur 24 Sudeste 0 -- -- 66
2017-09-20 15:00:00 25.4 15 Sur 26 Sur 0 -- -- 63
2017-09-20 14:00:00 24.8 14 Sur 22 Sur 0 -- -- 59
2017-09-20 13:00:00 24.7 12 Sur 19 Sur 0 -- -- 68
2017-09-20 12:00:00 24.9 10 Sur 14 Sur 0 -- -- 67
2017-09-20 11:00:00 23.5 9 Sur 13 Sur 0 -- -- 68
2017-09-20 10:00:00 21.4 3 Sudoeste 6 Norte 0 -- -- 58
2017-09-20 09:00:00 16.9 4 Norte 6 Norte 0 -- -- 72
2017-09-20 08:00:00 16.1 0 Calma 3 Norte 0 -- -- 73
2017-09-20 07:00:00 16.1 0 Calma 3 Norte 0 -- -- 73
2017-09-20 06:00:00 16.5 0 Calma 5 Norte 0 -- -- 72
2017-09-20 05:00:00 16.7 3 Norte 5 Nordeste 0 -- -- 72
2017-09-20 04:00:00 17 0 Calma 8 Norte 0 -- -- 70
2017-09-20 03:00:00 17.3 4 Norte 9 Norte 0 -- -- 69
2017-09-20 02:00:00 17.5 3 Nordeste 7 Norte 0 -- -- 77
2017-09-20 01:00:00 18 3 Norte 5 Nordeste 0 -- -- 81
2017-09-20 00:00:00 18.2 0 Calma 4 Norte 0 -- -- 77
2017-09-19 23:00:00 18.9 2 Nordeste 6 Nordeste 0 -- -- 82
2017-09-19 22:00:00 20 0 Calma 6 Sudoeste 0 -- -- 78
2017-09-19 21:00:00 21.6 3 Sur 13 Sur 0 -- -- 73
2017-09-19 20:00:00 23.4 8 Sudeste 19 Sudeste 0 -- -- 65
2017-09-19 19:00:00 24.4 10 Sur 19 Sudeste 0 -- -- 62
2017-09-19 18:00:00 24.1 12 Sur 19 Sur 0 -- -- 67
2017-09-19 17:00:00 24.6 13 Sur 24 Sur 0 -- -- 69
2017-09-19 16:00:00 25.4 14 Sur 21 Sur 0 -- -- 67
2017-09-19 15:00:00 25.7 12 Sur 22 Sudeste 0 -- -- 65
2017-09-19 14:00:00 25.7 14 Sur 24 Sudeste 0 -- -- 62
2017-09-19 13:00:00 26.3 12 Sur 22 Sudeste 0 -- -- 51
2017-09-19 12:00:00 24.4 8 Sudoeste 16 Sur 0 -- -- 55
2017-09-19 11:00:00 24.4 8 Sur 14 Sur 0 -- -- 52
2017-09-19 10:00:00 22.5 2 Noroeste 6 Sudoeste 0 -- -- 60
2017-09-19 09:00:00 18 0 Calma 6 Norte 0 -- -- 63
2017-09-19 08:00:00 18.1 5 Norte 6 Norte 0 -- -- 59
2017-09-19 07:00:00 18.7 4 Nordeste 9 Norte 0 -- -- 55
2017-09-19 06:00:00 19.4 5 Norte 9 Norte 0 -- -- 52
2017-09-19 05:00:00 19.9 5 Norte 10 Noroeste 0 -- -- 58
2017-09-19 04:00:00 21.1 4 Norte 11 Norte 0 -- -- 56
2017-09-19 03:00:00 21.4 7 Noroeste 13 Norte 0 -- -- 52
2017-09-19 02:00:00 23.1 9 Norte 25 Norte 0 -- -- 48
2017-09-19 01:00:00 24.4 17 Noroeste 31 Noroeste 0 -- -- 47
2017-09-19 00:00:00 25 15 Noroeste 25 Noroeste 0 -- -- 44
2017-09-18 23:00:00 25 9 Noroeste 23 Noroeste 0 -- -- 37
2017-09-18 22:00:00 26.1 14 Noroeste 25 Noroeste 0 -- -- 34
2017-09-18 21:00:00 27 21 Noroeste 33 Noroeste 0 -- -- 33
2017-09-18 20:00:00 22.1 6 Sur 23 Sudoeste 0 -- -- 64
2017-09-18 19:00:00 24.2 13 Sudoeste 31 Oeste 0 -- -- 56
2017-09-18 18:00:00 25.7 19 Oeste 34 Oeste 0 -- -- 49
2017-09-18 17:00:00 30.3 22 Noroeste 40 Sudoeste 0 -- -- 23
2017-09-18 16:00:00 23.7 19 Oeste 48 Sudoeste 0 -- -- 60
2017-09-18 15:00:00 23.5 27 Sudoeste 44 Oeste 0 -- -- 55
2017-09-18 14:00:00 25.3 21 Sudoeste 38 Sudoeste 0 -- -- 52
2017-09-18 13:00:00 25.4 9 Oeste 22 Oeste 0 -- -- 46
2017-09-18 12:00:00 25 9 Sur 14 Sur 0 -- -- 40
2017-09-18 11:00:00 22.7 6 Sudoeste 9 Sudoeste 0 -- -- 56
2017-09-18 10:00:00 19.8 0 Calma 4 Este 0 -- -- 58
2017-09-18 09:00:00 14.4 0 Calma 3 Norte 0 -- -- 69
2017-09-18 08:00:00 14.2 3 Norte 5 Norte 0 -- -- 66
2017-09-18 07:00:00 14.8 2 Norte 8 Norte 0 -- -- 63
2017-09-18 06:00:00 14.6 4 Norte 7 Norte 0 -- -- 70
2017-09-18 05:00:00 14.5 3 Norte 7 Norte 0 -- -- 66
2017-09-18 04:00:00 14.7 4 Norte 9 Nordeste 0 -- -- 69
2017-09-18 03:00:00 14.9 4 Norte 6 Nordeste 0 -- -- 78
2017-09-18 02:00:00 15.3 2 Nordeste 6 Nordeste 0 -- -- 87
2017-09-18 01:00:00 15.8 2 Norte 5 Norte 0 -- -- 88
2017-09-18 00:00:00 16.5 0 Calma 6 Nordeste 0 -- -- 88
2017-09-17 23:00:00 17.2 0 Calma 2 Nordeste 0 -- -- 87
2017-09-17 22:00:00 18.2 0 Calma 4 Sur 0 -- -- 82
2017-09-17 21:00:00 19.7 0 Calma 7 Sur 0 -- -- 77
2017-09-17 20:00:00 23.2 5 Sudoeste 8 Sudoeste 0 -- -- 58
2017-09-17 19:00:00 23 4 Sudoeste 12 Sudoeste 0 -- -- 59
2017-09-17 18:00:00 23.9 8 Sudoeste 16 Sudoeste 0 -- -- 62
2017-09-17 17:00:00 25.2 10 Sudoeste 18 Sur 0 -- -- 46
2017-09-17 16:00:00 24.8 11 Sur 18 Sudoeste 0 -- -- 60
2017-09-17 15:00:00 24.4 13 Sur 22 Sudeste 0 -- -- 63
2017-09-17 14:00:00 24 12 Sur 19 Sur 0 -- -- 64
2017-09-17 13:00:00 23.6 13 Sur 21 Sur 0 -- -- 63
2017-09-17 12:00:00 23.3 11 Sur 18 Sur 0 -- -- 59
2017-09-17 11:00:00 23 8 Sur 12 Sur 0 -- -- 52
2017-09-17 10:00:00 21.1 0 Calma 9 Norte 0 -- -- 50
2017-09-17 09:00:00 16.6 4 Norte 8 Norte 0 -- -- 67
2017-09-17 08:00:00 15.4 6 Norte 11 Norte 0 -- -- 63
2017-09-17 07:00:00 15 5 Norte 9 Norte 0 -- -- 72
2017-09-17 06:00:00 14.6 3 Nordeste 8 Norte 0 -- -- 65
2017-09-17 05:00:00 15 4 Norte 8 Norte 0 -- -- 71
2017-09-17 04:00:00 15.2 3 Norte 10 Sur 0 -- -- 61
2017-09-17 03:00:00 15.6 3 Norte 7 Norte 0 -- -- 55
2017-09-17 02:00:00 16.4 0 Calma 9 Norte 0 -- -- 50
2017-09-17 01:00:00 16.3 5 Nordeste 8 Nordeste 0 -- -- 53
2017-09-17 00:00:00 16.6 0 Calma 6 Norte 0 -- -- 63
2017-09-16 23:00:00 17.7 3 Norte 6 Norte 0 -- -- 69
2017-09-16 22:00:00 19.3 3 Sudeste 10 Sudeste 0 -- -- 70
2017-09-16 21:00:00 20.6 3 Este 6 Sudeste 0 -- -- 64
2017-09-16 20:00:00 22.3 3 Sur 20 Sudoeste 0 -- -- 60
2017-09-16 19:00:00 23.5 10 Sudoeste 32 Sudoeste 0 -- -- 56
2017-09-16 18:00:00 24.7 14 Sudoeste 30 Oeste 0 -- -- 49
2017-09-16 17:00:00 23.1 22 Sudoeste 40 Sudoeste 0 -- -- 58
2017-09-16 16:00:00 23.2 22 Sudoeste 38 Sudoeste 0 -- -- 58
2017-09-16 15:00:00 22.8 21 Sudoeste 33 Oeste 0 -- -- 62
2017-09-16 14:00:00 23 17 Sudoeste 27 Sudoeste 0 -- -- 63
2017-09-16 13:00:00 22.5 13 Sudoeste 24 Sudoeste 0 -- -- 65
2017-09-16 12:00:00 22.3 10 Sudoeste 18 Sudoeste 0 -- -- 64
2017-09-16 11:00:00 21.5 6 Sudoeste 12 Oeste 0 -- -- 57
2017-09-16 10:00:00 20.3 5 Sudoeste 9 Sudoeste 0 -- -- 44
2017-09-16 09:00:00 15.8 0 Calma 6 Norte 0 -- -- 63
2017-09-16 08:00:00 15.2 3 Norte 6 Norte 0 -- -- 63
2017-09-16 07:00:00 15.7 3 Nordeste 7 Nordeste 0 -- -- 70
2017-09-16 06:00:00 17 4 Norte 12 Este 0 -- -- 68
2017-09-16 05:00:00 18.1 5 Este 13 Sudeste 0 -- -- 70
2017-09-16 04:00:00 18.1 8 Este 13 Este 0 -- -- 69
2017-09-16 03:00:00 17.7 3 Este 9 Este 0 -- -- 62
2017-09-16 02:00:00 19.3 4 Este 17 Oeste 0 -- -- 57
2017-09-16 01:00:00 22.2 10 Oeste 18 Oeste 0 -- -- 47
2017-09-16 00:00:00 23.1 6 Sudoeste 27 Noroeste 0 -- -- 28
2017-09-15 23:00:00 22.8 8 Oeste 21 Noroeste 0 -- -- 30
2017-09-15 22:00:00 20.3 3 Sudeste 9 Oeste 0 -- -- 56
2017-09-15 21:00:00 22 4 Sur 12 Sur 0 -- -- 55
2017-09-15 20:00:00 24.3 10 Sudoeste 28 Oeste 0 -- -- 46
2017-09-15 19:00:00 24.9 12 Oeste 39 Sudoeste 0 -- -- 45
2017-09-15 18:00:00 25.6 14 Oeste 36 Sudoeste 0 -- -- 46
2017-09-15 17:00:00 25.8 22 Sudoeste 37 Sudoeste 0 -- -- 48
2017-09-15 16:00:00 25.8 14 Sudoeste 27 Sudoeste 0 -- -- 52
2017-09-15 15:00:00 25.1 17 Sudoeste 37 Sudoeste 0 -- -- 55
2017-09-15 14:00:00 25.1 20 Sudoeste 36 Sudoeste 0 -- -- 58
2017-09-15 13:00:00 24 21 Sudoeste 37 Oeste 0 -- -- 67
2017-09-15 12:00:00 24.9 19 Sudoeste 36 Sudoeste 0 -- -- 64
2017-09-15 11:00:00 24.3 14 Sudoeste 30 Sudoeste 0 -- -- 66
2017-09-15 10:00:00 25.1 9 Sudoeste 16 Sudoeste 0 -- -- 55
2017-09-15 09:00:00 21.2 6 Norte 11 Norte 0 -- -- 50
2017-09-15 08:00:00 21 3 Nordeste 13 Sur 0 -- -- 50
2017-09-15 07:00:00 20.1 5 Norte 9 Norte 0 -- -- 49
2017-09-15 06:00:00 20.4 3 Norte 6 Sur 0 -- -- 53
2017-09-15 05:00:00 21.3 3 Norte 9 Nordeste 0 -- -- 50
2017-09-15 04:00:00 21.4 5 Norte 8 Norte 0 -- -- 69
2017-09-15 03:00:00 21.7 3 Nordeste 6 Sudeste 0 -- -- 65
2017-09-15 02:00:00 22.2 3 Sur 5 Nordeste 0 -- -- 59
2017-09-15 01:00:00 22.7 2 Este 8 Sur 0 -- -- 68
2017-09-15 00:00:00 24.2 2 Este 12 Nordeste 0 -- -- 59
2017-09-14 23:00:00 23.3 6 Nordeste 23 Sudoeste 0 -- -- 67
2017-09-14 22:00:00 24.8 7 Sudeste 19 Sur 0 -- -- 65
2017-09-14 21:00:00 26.2 4 Norte 10 Noroeste 0 -- -- 54
2017-09-14 20:00:00 26.9 2 Nordeste 7 Sudoeste 0 -- -- 53
2017-09-14 19:00:00 26.6 3 Oeste 13 Sudoeste 0 -- -- 54
2017-09-14 18:00:00 29.3 6 Sudoeste 13 Sur 0 -- -- 42
2017-09-14 17:00:00 27.9 8 Sudoeste 17 Sudoeste 0 -- -- 47
2017-09-14 16:00:00 26.7 5 Sur 15 Sudoeste 0 -- -- 61
2017-09-14 15:00:00 26.5 6 Sudoeste 17 Sudoeste 0 -- -- 61
2017-09-14 14:00:00 25.6 12 Sudoeste 18 Oeste 0 -- -- 70
2017-09-14 13:00:00 25.1 8 Sudoeste 17 Sudoeste 0 -- -- 73
2017-09-14 12:00:00 25.1 9 Sudoeste 16 Sur 0 -- -- 63
2017-09-14 11:00:00 23.8 4 Sur 11 Sudoeste 0 -- -- 64
2017-09-14 10:00:00 22.5 5 Sudoeste 10 Sudoeste 0 -- -- 58
2017-09-14 09:00:00 17.9 2 Nordeste 4 Norte 0 -- -- 78
2017-09-14 08:00:00 17.7 0 Calma 6 Norte 0 -- -- 73
2017-09-14 07:00:00 18.1 2 Este 11 Norte 0 -- -- 67
2017-09-14 06:00:00 18.4 5 Norte 9 Nordeste 0 -- -- 67
2017-09-14 05:00:00 19.4 4 Norte 12 Nordeste 0 -- -- 63
2017-09-14 04:00:00 19.5 5 Norte 14 Norte 0 -- -- 68
2017-09-14 03:00:00 19.9 6 Norte 10 Norte 0 -- -- 70
2017-09-14 02:00:00 20.2 6 Norte 10 Norte 0 -- -- 69
2017-09-14 01:00:00 20.3 6 Norte 10 Nordeste 0 -- -- 73
2017-09-14 00:00:00 20.5 5 Norte 8 Norte 0 -- -- 76
2017-09-13 23:00:00 20.7 4 Norte 6 Norte 0 -- -- 78
2017-09-13 22:00:00 21.7 0 Calma 4 Norte 0 -- -- 75
2017-09-13 21:00:00 23.5 0 Calma 6 Sudoeste 0 -- -- 70
2017-09-13 20:00:00 25.6 4 Sudoeste 12 Sudoeste 0 -- -- 62
2017-09-13 19:00:00 26.8 9 Sudoeste 15 Sudoeste 0 -- -- 57
2017-09-13 18:00:00 27.2 10 Sudoeste 18 Sudoeste 0 -- -- 55
2017-09-13 17:00:00 27.7 13 Sudoeste 20 Sudoeste 0 -- -- 52
2017-09-13 16:00:00 27.6 12 Sudoeste 19 Sudoeste 0 -- -- 50
2017-09-13 15:00:00 27.9 15 Sudoeste 20 Sudoeste 0 -- -- 49
2017-09-13 14:00:00 27.5 13 Sudoeste 19 Sudoeste 0 -- -- 53
2017-09-13 13:00:00 27.5 14 Sudoeste 21 Sur 0 -- -- 52
2017-09-13 12:00:00 27.4 12 Sur 19 Sur 0 -- -- 52
2017-09-13 11:00:00 26.5 8 Sur 15 Sur 0 -- -- 55
2017-09-13 10:00:00 22.9 6 Norte 12 Norte 0 -- -- 65
2017-09-13 09:00:00 19.5 9 Norte 14 Norte 0 -- -- 72
2017-09-13 08:00:00 19 5 Norte 9 Norte 0 -- -- 79
2017-09-13 07:00:00 19.5 6 Norte 10 Norte 0 -- -- 76
2017-09-13 06:00:00 19.5 6 Norte 10 Norte 0 -- -- 70
2017-09-13 05:00:00 -- -- -- -- -- -- -- -- --
2017-09-13 04:00:00 19.8 3 Nordeste 6 Norte 0 -- -- 76
2017-09-13 03:00:00 20.2 5 Norte 7 Norte 0 -- -- 71
2017-09-13 02:00:00 21.4 5 Norte 8 Norte 0 -- -- 72
2017-09-13 01:00:00 22.3 3 Norte 22 Sudeste 0 -- -- 74
2017-09-13 00:00:00 23.4 11 Sudeste 24 Sudeste 0 -- -- 80
2017-09-12 23:00:00 24.5 7 Sudeste 15 Este 0 -- -- 61
2017-09-12 22:00:00 24.7 4 Nordeste 13 Sur 0 -- -- 46
2017-09-12 21:00:00 25.6 6 Sudeste 18 Sudeste 0 -- -- 45
2017-09-12 20:00:00 29 4 Sur 12 Sudeste 0 -- -- 42
2017-09-12 19:00:00 30.1 6 Sur 11 Sur 0 -- -- 35
2017-09-12 18:00:00 28.9 7 Sudoeste 13 Sur 0 -- -- 36
2017-09-12 17:00:00 27.7 9 Sudoeste 16 Sur 0 -- -- 53
2017-09-12 16:00:00 27.2 11 Sur 19 Sur 0 -- -- 61
2017-09-12 15:00:00 26.7 10 Sur 22 Sur 0 -- -- 58
2017-09-12 14:00:00 26.9 14 Sur 23 Sur 0 -- -- 58
2017-09-12 13:00:00 26.9 12 Sudeste 18 Sudeste 0 -- -- 46
2017-09-12 12:00:00 27.8 9 Sudoeste 13 Sudoeste 0 -- -- 43
2017-09-12 11:00:00 24.9 4 Oeste 9 Sudoeste 0 -- -- 55
2017-09-12 10:00:00 23.3 0 Calma 5 Sudoeste 0 -- -- 57
2017-09-12 09:00:00 17.7 3 Norte 6 Norte 0 -- -- 59
2017-09-12 08:00:00 17.1 4 Norte 8 Norte 0 -- -- 59
2017-09-12 07:00:00 17.2 4 Nordeste 6 Norte 0 -- -- 56
2017-09-12 06:00:00 17.1 3 Nordeste 7 Norte 0 -- -- 57
2017-09-12 05:00:00 17.3 4 Nordeste 7 Norte 0 -- -- 58
2017-09-12 04:00:00 17.7 4 Nordeste 6 Nordeste 0 -- -- 61
2017-09-12 03:00:00 18.5 3 Norte 6 Sudeste 0 -- -- 53
2017-09-12 02:00:00 18.7 2 Nordeste 6 Norte 0 -- -- 51
2017-09-12 01:00:00 19.1 4 Norte 10 Nordeste 0 -- -- 52
2017-09-12 00:00:00 19.4 4 Norte 11 Norte 0 -- -- 57
2017-09-11 23:00:00 20 0 Calma 5 Oeste 0 -- -- 77
2017-09-11 22:00:00 20.7 0 Calma 6 Nordeste 0 -- -- 63
2017-09-11 21:00:00 22.2 3 Norte 7 Sudoeste 0 -- -- 66
2017-09-11 20:00:00 25 3 Sudoeste 9 Sudoeste 0 -- -- 60
2017-09-11 19:00:00 26.7 5 Sudoeste 12 Sur 0 -- -- 52
2017-09-11 18:00:00 27.1 3 Noroeste 12 Sur 0 -- -- 45
2017-09-11 17:00:00 26.4 10 Sudoeste 16 Sudoeste 0 -- -- 56
2017-09-11 16:00:00 26.3 9 Sudoeste 18 Sudoeste 0 -- -- 56
2017-09-11 15:00:00 26.3 12 Sur 19 Sudoeste 0 -- -- 57
2017-09-11 14:00:00 27.9 11 Sur 18 Sur 0 -- -- 40
2017-09-11 13:00:00 26.4 8 Sur 15 Sur 0 -- -- 47
2017-09-11 12:00:00 25.3 9 Sur 16 Sur 0 -- -- 45
2017-09-11 11:00:00 24.4 8 Sur 14 Sudeste 0 -- -- 50
2017-09-11 10:00:00 22.8 2 Sur 6 Norte 0 -- -- 41
2017-09-11 09:00:00 17.2 5 Norte 10 Norte 0 -- -- 58
2017-09-11 08:00:00 16 5 Norte 8 Norte 0 -- -- 60
2017-09-11 07:00:00 16.2 3 Norte 8 Nordeste 0 -- -- 59
2017-09-11 06:00:00 16.1 4 Nordeste 6 Nordeste 0 -- -- 62
2017-09-11 05:00:00 16.5 4 Norte 6 Norte 0 -- -- 64
2017-09-11 04:00:00 17 3 Nordeste 8 Este 0 -- -- 65
2017-09-11 03:00:00 17.7 2 Sudeste 10 Nordeste 0 -- -- 60
2017-09-11 02:00:00 17.7 4 Norte 10 Nordeste 0 -- -- 74
2017-09-11 01:00:00 18.3 3 Norte 6 Norte 0 -- -- 76
2017-09-11 00:00:00 19.3 4 Nordeste 10 Este 0 -- -- 72
2017-09-10 23:00:00 19.5 3 Nordeste 7 Sudoeste 0 -- -- 73
2017-09-10 22:00:00 20.8 3 Nordeste 17 Sudeste 0 -- -- 73
2017-09-10 21:00:00 21.9 4 Sudeste 13 Sur 0 -- -- 72
2017-09-10 20:00:00 24.3 9 Sur 15 Sudoeste 0 -- -- 63
2017-09-10 19:00:00 26.2 9 Sudoeste 15 Sudoeste 0 -- -- 49
2017-09-10 18:00:00 26.4 8 Sudoeste 21 Sudoeste 0 -- -- 50
2017-09-10 17:00:00 25.6 13 Sudoeste 27 Sudoeste 0 -- -- 55
2017-09-10 16:00:00 25.3 16 Sudoeste 30 Sudoeste 0 -- -- 54
2017-09-10 15:00:00 25.5 16 Sudoeste 39 Sudoeste 0 -- -- 53
2017-09-10 14:00:00 29.3 12 Sur 18 Sur 0 -- -- 24
2017-09-10 13:00:00 27.8 7 Sudoeste 18 Sudoeste 0 -- -- 27
2017-09-10 12:00:00 26.1 12 Sudoeste 19 Oeste 0 -- -- 39
2017-09-10 11:00:00 26.4 9 Sur 25 Noroeste 0 -- -- 32
2017-09-10 10:00:00 23.8 18 Noroeste 31 Noroeste 0 -- -- 37
2017-09-10 09:00:00 20.4 17 Noroeste 30 Noroeste 0 -- -- 47
2017-09-10 08:00:00 19.8 21 Noroeste 32 Noroeste 0 -- -- 48
2017-09-10 07:00:00 19.8 13 Norte 24 Noroeste 0 -- -- 49
2017-09-10 06:00:00 20.4 13 Noroeste 28 Noroeste 0 -- -- 47
2017-09-10 05:00:00 21.2 14 Noroeste 26 Oeste 0 -- -- 45
2017-09-10 04:00:00 21.9 14 Noroeste 30 Noroeste 0 -- -- 45
2017-09-10 03:00:00 23 15 Noroeste 29 Oeste 0 -- -- 49
2017-09-10 02:00:00 23.7 18 Noroeste 42 Noroeste 0 -- -- 51
2017-09-10 01:00:00 24.4 29 Noroeste 42 Noroeste 0 -- -- 51
2017-09-10 00:00:00 25.1 19 Noroeste 43 Noroeste 0 -- -- 49
2017-09-09 23:00:00 26 22 Noroeste 36 Noroeste 0 -- -- 45
2017-09-09 22:00:00 26.5 13 Noroeste 23 Oeste 0 -- -- 44
2017-09-09 21:00:00 27.4 12 Noroeste 39 Noroeste 0 -- -- 38
2017-09-09 20:00:00 29.2 20 Noroeste 36 Noroeste 0 -- -- 31
2017-09-09 19:00:00 30.8 21 Noroeste 39 Noroeste 0 -- -- 29
2017-09-09 18:00:00 31.3 24 Noroeste 43 Noroeste 0 -- -- 25
2017-09-09 17:00:00 30.8 20 Noroeste 40 Noroeste 0 -- -- 23
2017-09-09 16:00:00 27.1 19 Sudoeste 36 Sudoeste 0 -- -- 60
2017-09-09 15:00:00 26.7 13 Oeste 36 Oeste 0 -- -- 59
2017-09-09 14:00:00 26.5 22 Sudoeste 36 Sudoeste 0 -- -- 60
2017-09-09 13:00:00 26.3 15 Sudoeste 33 Sudoeste 0 -- -- 63
2017-09-09 12:00:00 25.2 10 Sudoeste 21 Sudoeste 0 -- -- 72
2017-09-09 11:00:00 25 5 Sudoeste 12 Sudoeste 0 -- -- 72
2017-09-09 10:00:00 22.8 2 Noroeste 8 Norte 0 -- -- 70
2017-09-09 09:00:00 17.8 4 Norte 9 Norte 0 -- -- 79
2017-09-09 08:00:00 17.3 3 Nordeste 7 Nordeste 0 -- -- 91
2017-09-09 07:00:00 18.8 4 Norte 8 Norte 0 -- -- 94
2017-09-09 06:00:00 18.7 3 Nordeste 6 Norte 0 -- -- 92
2017-09-09 05:00:00 19.1 4 Norte 10 Norte 0 -- -- 88
2017-09-09 04:00:00 19.9 4 Norte 8 Norte 0 -- -- 93
2017-09-09 03:00:00 20.3 4 Nordeste 5 Nordeste 0 -- -- 93
2017-09-09 02:00:00 20.7 3 Nordeste 5 Nordeste 0 -- -- 91
2017-09-09 01:00:00 21.5 3 Norte 5 Norte 0 -- -- 91
2017-09-09 00:00:00 22.1 2 Norte 4 Norte 0 -- -- 90
2017-09-08 23:00:00 23.1 3 Norte 9 Sudoeste 0 -- -- 87
2017-09-08 22:00:00 24 6 Sudoeste 9 Sudoeste 0 -- -- 86
2017-09-08 21:00:00 24.3 4 Oeste 11 Sudoeste 0 -- -- 82
2017-09-08 20:00:00 25.8 5 Sudoeste 14 Sudoeste 0 -- -- 76
2017-09-08 19:00:00 27.2 9 Sudoeste 14 Sur 0 -- -- 72
2017-09-08 18:00:00 27.5 10 Sudoeste 17 Sudoeste 0 -- -- 66
2017-09-08 17:00:00 27.4 10 Sudoeste 21 Sudoeste 0 -- -- 72
2017-09-08 16:00:00 27.5 10 Sudoeste 18 Sudoeste 0 -- -- 71
2017-09-08 15:00:00 27.6 12 Sur 19 Sudoeste 0 -- -- 71
2017-09-08 14:00:00 27.5 12 Sur 18 Sudoeste 0 -- -- 71
2017-09-08 13:00:00 27.6 10 Sudoeste 18 Sudoeste 0 -- -- 70
2017-09-08 12:00:00 26.9 10 Sur 16 Sudoeste 0 -- -- 72
2017-09-08 11:00:00 26.4 7 Sur 14 Sur 0 -- -- 71
2017-09-08 10:00:00 24.7 2 Norte 6 Norte 0 -- -- 76
2017-09-08 09:00:00 21.2 3 Norte 7 Norte 0 -- -- 87
2017-09-08 08:00:00 20.1 4 Norte 6 Norte 0 -- -- 87
2017-09-08 07:00:00 19.9 4 Norte 5 Norte 0 -- -- 86
2017-09-08 06:00:00 20.1 3 Nordeste 5 Norte 0 -- -- 86
2017-09-08 05:00:00 20.3 3 Norte 8 Norte 0 -- -- 87
2017-09-08 04:00:00 20.7 3 Nordeste 5 Norte 0 -- -- 87
2017-09-08 03:00:00 21.4 4 Nordeste 9 Norte 0 -- -- 87
2017-09-08 02:00:00 21.4 3 Nordeste 8 Noroeste 0 -- -- 88
2017-09-08 01:00:00 21.7 4 Norte 7 Norte 0 -- -- 88
2017-09-08 00:00:00 22 0 Calma 5 Nordeste 0 -- -- 89
2017-09-07 23:00:00 22.8 0 Calma 4 Este 0 -- -- 86
2017-09-07 22:00:00 23.8 0 Calma 5 Oeste 0 -- -- 84
2017-09-07 21:00:00 24.5 2 Oeste 9 Sudoeste 0 -- -- 81
2017-09-07 20:00:00 25.7 5 Sur 10 Sur 0 -- -- 76
2017-09-07 19:00:00 26.8 8 Sudoeste 16 Sur 0 -- -- 71
2017-09-07 18:00:00 27.2 9 Sur 17 Sur 0 -- -- 72
2017-09-07 17:00:00 27.6 11 Sur 20 Sur 0 -- -- 70
2017-09-07 16:00:00 27.7 14 Sur 23 Sudoeste 0 -- -- 70
2017-09-07 15:00:00 27.9 12 Sur 25 Sur 0 -- -- 68
2017-09-07 14:00:00 27.8 14 Sur 22 Sur 0 -- -- 68
2017-09-07 13:00:00 27 12 Sur 19 Sur 0 -- -- 74
2017-09-07 12:00:00 26.6 12 Sur 18 Sur 0 -- -- 75
2017-09-07 11:00:00 26 7 Sudoeste 12 Sudoeste 0 -- -- 78
2017-09-07 10:00:00 24.6 3 Sudoeste 6 Sur 0 -- -- 79
2017-09-07 09:00:00 21 4 Norte 6 Norte 0 -- -- 85
2017-09-07 08:00:00 20.2 3 Norte 6 Norte 0 -- -- 87
2017-09-07 07:00:00 20.6 4 Nordeste 8 Norte 0 -- -- 81
2017-09-07 06:00:00 20.7 5 Norte 9 Norte 0 -- -- 80
2017-09-07 05:00:00 20.4 6 Norte 7 Norte 0 -- -- 77
2017-09-07 04:00:00 20.9 3 Norte 9 Norte 0 -- -- 79
2017-09-07 03:00:00 21.3 6 Norte 10 Norte 0 -- -- 76
2017-09-07 02:00:00 21.5 3 Norte 6 Norte 0 -- -- 83
2017-09-07 01:00:00 21.9 3 Norte 4 Norte 0 -- -- 86
2017-09-07 00:00:00 22.1 2 Nordeste 4 Norte 0 -- -- 85
2017-09-06 23:00:00 22.6 0 Calma 4 Nordeste 0 -- -- 82
2017-09-06 22:00:00 23.5 0 Calma 3 Sur 0 -- -- 78
2017-09-06 21:00:00 25 2 Sudoeste 10 Sur 0 -- -- 73
2017-09-06 20:00:00 26.6 5 Sur 14 Sudoeste 0 -- -- 69
2017-09-06 19:00:00 27.5 8 Sudoeste 17 Sur 0 -- -- 69
2017-09-06 18:00:00 27.5 10 Sur 17 Sudoeste 0 -- -- 68
2017-09-06 17:00:00 28 11 Sur 20 Sudoeste 0 -- -- 66
2017-09-06 16:00:00 28.4 13 Sur 18 Sur 0 -- -- 65
2017-09-06 15:00:00 28.1 11 Sudoeste 18 Sudoeste 0 -- -- 68
2017-09-06 14:00:00 27.7 12 Sudoeste 20 Sudoeste 0 -- -- 70
2017-09-06 13:00:00 27.9 11 Sudoeste 17 Sudoeste 0 -- -- 65
2017-09-06 12:00:00 28 9 Sudeste 15 Sur 0 -- -- 59
2017-09-06 11:00:00 28.2 7 Sur 14 Sur 0 -- -- 48
2017-09-06 10:00:00 25.3 2 Sudoeste 5 Norte 0 -- -- 61
2017-09-06 09:00:00 20.8 2 Norte 8 Norte 0 -- -- 80
2017-09-06 08:00:00 20.4 4 Norte 10 Noroeste 0 -- -- 79
2017-09-06 07:00:00 21 5 Norte 14 Norte 0 -- -- 79
2017-09-06 06:00:00 21.2 7 Norte 12 Nordeste 0 -- -- 81
2017-09-06 05:00:00 21.4 3 Norte 12 Norte 0 -- -- 87
2017-09-06 04:00:00 21.9 4 Nordeste 10 Norte 0 -- -- 90
2017-09-06 03:00:00 21.9 4 Norte 6 Norte 0 -- -- 90
2017-09-06 02:00:00 22.1 3 Norte 5 Norte 0 -- -- 91
2017-09-06 01:00:00 22.4 2 Norte 5 Nordeste 0 -- -- 89
2017-09-06 00:00:00 22.8 2 Norte 4 Norte 0 -- -- 88
2017-09-05 23:00:00 23.5 0 Calma 2 Nordeste 0 -- -- 85
2017-09-05 22:00:00 24.4 2 Sudoeste 6 Sur 0 -- -- 82
2017-09-05 21:00:00 25.2 4 Sur 15 Sur 0 -- -- 79
2017-09-05 20:00:00 26.5 10 Sur 21 Sur 0 -- -- 72
2017-09-05 19:00:00 27 14 Sur 23 Sur 0 -- -- 71
2017-09-05 18:00:00 27.7 14 Sur 27 Sur 0 -- -- 69
2017-09-05 17:00:00 28.1 13 Sur 27 Sur 0 -- -- 67
2017-09-05 16:00:00 28.4 13 Sur 23 Sur 0 -- -- 65
2017-09-05 15:00:00 28.3 13 Sur 24 Sur 0 -- -- 65
2017-09-05 14:00:00 27.9 15 Sur 28 Sur 0 -- -- 66
2017-09-05 13:00:00 27.9 15 Sur 33 Sudeste 0 -- -- 66
2017-09-05 12:00:00 28.1 16 Sudeste 36 Este 0 -- -- 66
2017-09-05 11:00:00 27.5 10 Sudeste 21 Sur 0 -- -- 65
2017-09-05 10:00:00 26.5 3 Norte 9 Norte 0 -- -- 70
2017-09-05 09:00:00 23.5 5 Norte 10 Este 0 -- -- 77
2017-09-05 08:00:00 22.4 4 Norte 8 Norte 0 -- -- 83
2017-09-05 07:00:00 22.8 4 Nordeste 9 Nordeste 0 -- -- 85
2017-09-05 06:00:00 22.5 5 Norte 12 Nordeste 0 -- -- 85
2017-09-05 05:00:00 23 5 Nordeste 13 Este 0 -- -- 84
2017-09-05 04:00:00 24.3 6 Este 17 Sudeste 0 -- -- 82
2017-09-05 03:00:00 24.8 9 Sudeste 23 Sudeste 0 -- -- 77
2017-09-05 02:00:00 24.8 7 Sudeste 21 Sudeste 0 -- -- 82
2017-09-05 01:00:00 26.3 8 Sudeste 20 Sudeste 0 -- -- 62
2017-09-05 00:00:00 26 8 Este 15 Sudeste 0 -- -- 43
2017-09-04 23:00:00 27.3 6 Norte 17 Noroeste 0 -- -- 36
2017-09-04 22:00:00 29.9 4 Noroeste 20 Noroeste 0 -- -- 31
2017-09-04 21:00:00 31.4 12 Noroeste 23 Noroeste 0 -- -- 28
2017-09-04 20:00:00 29.6 6 Sudoeste 30 Sudoeste 0 -- -- 55
2017-09-04 19:00:00 29.1 18 Sudoeste 34 Sudoeste 0 -- -- 61
2017-09-04 18:00:00 29.7 17 Sudoeste 32 Sudoeste 0 -- -- 58
2017-09-04 17:00:00 28.7 16 Sudoeste 43 Oeste 0 -- -- 64
2017-09-04 16:00:00 27.8 26 Sudoeste 45 Sudoeste 0 -- -- 68
2017-09-04 15:00:00 28 29 Sudoeste 42 Sudoeste 0 -- -- 66
2017-09-04 14:00:00 28.7 13 Sudoeste 24 Sudoeste 0 -- -- 66
2017-09-04 13:00:00 27.9 15 Sudoeste 29 Sudoeste 0 -- -- 71
2017-09-04 12:00:00 27.8 8 Sudoeste 18 Sudoeste 0 -- -- 68
2017-09-04 11:00:00 26.4 6 Sur 10 Sudoeste 0 -- -- 67
2017-09-04 10:00:00 24.5 2 Sudeste 6 Sur 0 -- -- 80
2017-09-04 09:00:00 20.7 0 Calma 6 Norte 0 -- -- 93
2017-09-04 08:00:00 19.3 3 Nordeste 6 Nordeste 0 -- -- 89
2017-09-04 07:00:00 19.5 4 Norte 6 Norte 0 -- -- 91
2017-09-04 06:00:00 19.8 3 Norte 5 Norte 0 -- -- 91
2017-09-04 05:00:00 20.1 3 Nordeste 6 Norte 0 -- -- 89
2017-09-04 04:00:00 20.6 4 Norte 6 Norte 0 -- -- 87
2017-09-04 03:00:00 21.3 3 Nordeste 8 Nordeste 0 -- -- 89
2017-09-04 02:00:00 22.1 3 Nordeste 6 Nordeste 0 -- -- 89
2017-09-04 01:00:00 23.2 3 Norte 8 Sudoeste 0 -- -- 88
2017-09-04 00:00:00 24 5 Sudoeste 9 Oeste 0 -- -- 87
2017-09-03 23:00:00 24 4 Sudoeste 10 Oeste 0 -- -- 86
2017-09-03 22:00:00 24.3 3 Oeste 11 Sudoeste 0 -- -- 82
2017-09-03 21:00:00 24.7 5 Sudoeste 10 Sudoeste 0 -- -- 78
2017-09-03 20:00:00 25.6 5 Sudoeste 12 Sudoeste 0 -- -- 71
2017-09-03 19:00:00 27.5 8 Sudoeste 15 Sur 0 -- -- 63
2017-09-03 18:00:00 28 9 Sur 14 Sur 0 -- -- 60
2017-09-03 17:00:00 27.8 9 Sudoeste 17 Sudoeste 0 -- -- 59
2017-09-03 16:00:00 28.2 9 Sudoeste 15 Sudoeste 0 -- -- 57
2017-09-03 15:00:00 27.8 9 Sudoeste 15 Sudoeste 0 -- -- 66
2017-09-03 14:00:00 27.6 10 Sudoeste 17 Sur 0 -- -- 69
2017-09-03 13:00:00 27.6 12 Sudoeste 17 Sudoeste 0 -- -- 69
2017-09-03 12:00:00 27.7 10 Sudoeste 15 Sudoeste 0 -- -- 66
2017-09-03 11:00:00 26.8 6 Sur 10 Sur 0 -- -- 69
2017-09-03 10:00:00 25.2 5 Sudoeste 8 Sudoeste 0 -- -- 76
2017-09-03 09:00:00 21.9 4 Norte 9 Norte 0 -- -- 84
2017-09-03 08:00:00 21 4 Norte 10 Norte 0 -- -- 89
2017-09-03 07:00:00 21.4 4 Norte 6 Norte 0 -- -- 90
2017-09-03 06:00:00 21.9 4 Norte 9 Norte 0 -- -- 83
2017-09-03 05:00:00 22.9 4 Norte 8 Norte 0 -- -- 81
2017-09-03 04:00:00 23.7 3 Norte 7 Sudeste 0 -- -- 82
2017-09-03 03:00:00 23.8 2 Este 8 Sudeste 0 -- -- 85
2017-09-03 02:00:00 23.4 3 Norte 6 Norte 0 -- -- 86
2017-09-03 01:00:00 22.9 2 Norte 5 Norte 0 -- -- 88
2017-09-03 00:00:00 23.4 3 Nordeste 5 Este 0 -- -- 87
2017-09-02 23:00:00 24 0 Calma 13 Sudeste 0 -- -- 85
2017-09-02 22:00:00 24.4 7 Sudeste 18 Sudeste 0 -- -- 82
2017-09-02 21:00:00 -- -- -- -- -- -- -- -- --
2017-09-02 20:00:00 26.2 12 Sudeste 26 Sudeste 0 -- -- 74
2017-09-02 19:00:00 27.8 11 Sudeste 28 Sudeste 0 -- -- 62
2017-09-02 18:00:00 27.1 11 Sudeste 28 Sur 0 -- -- 69
2017-09-02 17:00:00 27.5 17 Sur 35 Sudeste 0 -- -- 70
2017-09-02 16:00:00 27.7 18 Sudeste 34 Sudeste 0 -- -- 70
2017-09-02 15:00:00 28.1 18 Sur 32 Sudeste 0 -- -- 67
2017-09-02 14:00:00 28.4 17 Sudeste 35 Sudeste 0 -- -- 64
2017-09-02 13:00:00 27.9 14 Sur 27 Sudeste 0 -- -- 68
2017-09-02 12:00:00 27.3 16 Sur 37 Sudeste 0 -- -- 70
2017-09-02 11:00:00 27.4 12 Sudeste 27 Sudeste 0 -- -- 68
2017-09-02 10:00:00 25.8 10 Sudeste 24 Sudeste 0 -- -- 76
2017-09-02 09:00:00 24.7 3 Sudeste 15 Sudeste 0 -- -- 81
2017-09-02 08:00:00 24.6 11 Sudeste 23 Sudeste 0 -- -- 78
2017-09-02 07:00:00 24.7 4 Sudeste 9 Sudeste 0 -- -- 81
2017-09-02 06:00:00 24.5 0 Calma 6 Sudeste 0 -- -- 83
2017-09-02 05:00:00 24.1 3 Sudeste 5 Sudeste 0 -- -- 85
2017-09-02 04:00:00 23.6 3 Norte 5 Norte 0 -- -- 87
2017-09-02 03:00:00 23.7 3 Norte 4 Sudeste 0 -- -- 87
2017-09-02 02:00:00 24.6 3 Este 9 Sudeste 0 -- -- 88
2017-09-02 01:00:00 24.8 4 Sudeste 13 Sudeste 0 -- -- 87
2017-09-02 00:00:00 25.1 2 Sudeste 13 Sudeste 0 -- -- 84
2017-09-01 23:00:00 25.7 5 Sudeste 11 Sudeste 0 -- -- 77
2017-09-01 22:00:00 26.3 5 Sur 13 Sudeste 0 -- -- 72
2017-09-01 21:00:00 26.6 7 Sur 13 Sudeste 0 -- -- 69
2017-09-01 20:00:00 27.5 10 Sur 17 Sur 0 -- -- 64
2017-09-01 19:00:00 28.8 11 Sur 19 Sur 0 -- -- 59
2017-09-01 18:00:00 29.9 12 Sur 22 Sur 0 -- -- 53
2017-09-01 17:00:00 30.6 13 Sur 22 Sur 0 -- -- 49
2017-09-01 16:00:00 30.5 11 Sur 19 Sudoeste 0 -- -- 49
2017-09-01 15:00:00 29.4 12 Sur 19 Sur 0 -- -- 55
2017-09-01 14:00:00 29 10 Sur 17 Sudoeste 0 -- -- 55
2017-09-01 13:00:00 28.3 10 Sudoeste 15 Sur 0 -- -- 57
2017-09-01 12:00:00 28.1 9 Sudoeste 15 Sudoeste 0 -- -- 54
2017-09-01 11:00:00 27.7 8 Sudoeste 13 Sudoeste 0 -- -- 53
2017-09-01 10:00:00 25.9 2 Sudoeste 8 Norte 0 -- -- 58
2017-09-01 09:00:00 22.3 6 Norte 10 Norte 0 -- -- 71
2017-09-01 08:00:00 21 5 Norte 10 Norte 0 -- -- 75
2017-09-01 07:00:00 20.8 6 Norte 9 Norte 0 -- -- 74
2017-09-01 06:00:00 20.9 6 Norte 10 Norte 0 -- -- 74
2017-09-01 05:00:00 21 5 Norte 9 Norte 0 -- -- 73
2017-09-01 04:00:00 21.3 6 Norte 9 Norte 0 -- -- 72
2017-09-01 03:00:00 21.7 5 Norte 9 Norte 0 -- -- 71
2017-09-01 02:00:00 22.2 5 Norte 9 Norte 0 -- -- 69
2017-09-01 01:00:00 21.8 5 Norte 7 Norte 0 -- -- 70
2017-09-01 00:00:00 21.9 4 Norte 6 Norte 0 -- -- 67
2017-08-31 23:00:00 22.2 2 Este 5 Norte 0 -- -- 67
2017-08-31 22:00:00 23.5 0 Calma 4 Norte 0 -- -- 69
2017-08-31 21:00:00 25.3 2 Sudeste 8 Sudoeste 0 -- -- 66
2017-08-31 20:00:00 27 6 Sudoeste 12 Sur 0 -- -- 60
2017-08-31 19:00:00 27.7 8 Sudoeste 15 Sur 0 -- -- 58
2017-08-31 18:00:00 28.4 10 Sur 17 Sur 0 -- -- 52
2017-08-31 17:00:00 28.2 12 Sur 21 Sudoeste 0 -- -- 59
2017-08-31 16:00:00 28.3 12 Sur 21 Sur 0 -- -- 58
2017-08-31 15:00:00 27.7 14 Sur 21 Sur 0 -- -- 64
2017-08-31 14:00:00 27.9 12 Sur 19 Sur 0 -- -- 61
2017-08-31 13:00:00 27.4 11 Sudoeste 16 Sudoeste 0 -- -- 60
2017-08-31 12:00:00 27.1 5 Sudoeste 12 Sur 0 -- -- 57
2017-08-31 11:00:00 26.1 7 Sur 11 Sur 0 -- -- 61
2017-08-31 10:00:00 24.3 3 Sudeste 7 Sudoeste 0 -- -- 66
2017-08-31 09:00:00 20.9 4 Norte 8 Norte 0 -- -- 81
2017-08-31 08:00:00 19.9 8 Norte 10 Norte 0 -- -- 80
2017-08-31 07:00:00 19.5 4 Nordeste 6 Norte 0 -- -- 89
2017-08-31 06:00:00 19.7 2 Este 5 Norte 0 -- -- 88
2017-08-31 05:00:00 20.1 3 Nordeste 6 Norte 0 -- -- 85
2017-08-31 04:00:00 20.7 0 Calma 5 Nordeste 0 -- -- 85
2017-08-31 03:00:00 21.4 2 Sudeste 6 Este 0 -- -- 78
2017-08-31 02:00:00 22 3 Sudeste 13 Norte 0 -- -- 74
2017-08-31 01:00:00 21.6 8 Noroeste 14 Norte 0 -- -- 78
2017-08-31 00:00:00 21.1 4 Norte 9 Norte 0 -- -- 86
2017-08-30 23:00:00 21.6 4 Noroeste 12 Oeste 0 -- -- 85
2017-08-30 22:00:00 21.6 6 Noroeste 14 Noroeste 0 -- -- 85
2017-08-30 21:00:00 21.6 6 Oeste 10 Oeste 0 -- -- 85
2017-08-30 20:00:00 22 5 Sur 14 Sur 0 -- -- 84
2017-08-30 19:00:00 22.3 6 Sudeste 28 Sudeste 0 -- -- 81
2017-08-30 18:00:00 22.3 12 Sudeste 28 Sudeste 0 -- -- 82
2017-08-30 17:00:00 22.5 13 Sudeste 28 Sudeste 0 -- -- 82
2017-08-30 16:00:00 22.1 14 Sudeste 30 Sudeste 0 -- -- 82
2017-08-30 15:00:00 22.8 13 Sudeste 33 Sudeste 0 -- -- 78
2017-08-30 14:00:00 24.1 12 Sudeste 22 Sur 0.2 -- -- 77
2017-08-30 13:00:00 24 8 Sur 13 Sudoeste 0 -- -- 75
2017-08-30 12:00:00 24.8 5 Oeste 16 Noroeste 0 -- -- 67
2017-08-30 11:00:00 22.7 11 Noroeste 18 Noroeste 0 -- -- 75
2017-08-30 10:00:00 21.6 8 Noroeste 13 Noroeste 0 -- -- 83
2017-08-30 09:00:00 20.6 3 Norte 8 Norte 0 -- -- 87
2017-08-30 08:00:00 20.2 3 Nordeste 7 Nordeste 0 -- -- 86
2017-08-30 07:00:00 20.3 2 Nordeste 5 Nordeste 0 -- -- 87
2017-08-30 06:00:00 20.6 3 Nordeste 7 Nordeste 0 -- -- 85
2017-08-30 05:00:00 20.8 3 Este 12 Este 0 -- -- 84
2017-08-30 04:00:00 21.2 5 Este 12 Este 0 -- -- 85
2017-08-30 03:00:00 20.4 4 Nordeste 6 Nordeste 0 -- -- 86
2017-08-30 02:00:00 20.2 3 Nordeste 5 Nordeste 0 -- -- 88
2017-08-30 01:00:00 20.3 2 Nordeste 5 Nordeste 0 -- -- 87
2017-08-30 00:00:00 21 4 Norte 6 Norte 0 -- -- 84
2017-08-29 23:00:00 22 3 Sur 5 Sur 0 -- -- 78
2017-08-29 22:00:00 22.5 3 Noroeste 9 Sudoeste 0 -- -- 75
2017-08-29 21:00:00 22.8 4 Oeste 11 Sudoeste 0 -- -- 73
2017-08-29 20:00:00 24.7 7 Sur 15 Sudoeste 0 -- -- 68
2017-08-29 19:00:00 25.8 7 Sudoeste 15 Sudoeste 0 -- -- 63
2017-08-29 18:00:00 25.6 8 Sudoeste 16 Sur 0 -- -- 63
2017-08-29 17:00:00 25.6 13 Sudoeste 20 Sudoeste 0 -- -- 59
2017-08-29 16:00:00 25.7 15 Sudoeste 22 Sur 0 -- -- 63
2017-08-29 15:00:00 25.4 10 Sudoeste 19 Sudoeste 0 -- -- 63
2017-08-29 14:00:00 25.3 11 Sudoeste 21 Oeste 0 -- -- 66
2017-08-29 13:00:00 25.1 13 Sudoeste 22 Sudoeste 0 -- -- 63
2017-08-29 12:00:00 24.1 10 Sudoeste 17 Oeste 0 -- -- 71
2017-08-29 11:00:00 23.9 6 Sudoeste 12 Sudoeste 0 -- -- 71
2017-08-29 10:00:00 22 0 Calma 4 Sudoeste 0 -- -- 75
2017-08-29 09:00:00 20.3 3 Este 5 Sudeste 0 -- -- 87
2017-08-29 08:00:00 19.3 4 Norte 7 Norte 0 -- -- 89
2017-08-29 07:00:00 19.1 3 Nordeste 6 Norte 0 -- -- 91
2017-08-29 06:00:00 19 3 Norte 8 Norte 0 -- -- 89
2017-08-29 05:00:00 19.5 4 Norte 8 Nordeste 0 -- -- 91
2017-08-29 04:00:00 19.8 4 Norte 7 Norte 0 -- -- 91
2017-08-29 03:00:00 20.7 4 Norte 6 Norte 0 -- -- 89
2017-08-29 02:00:00 21.5 3 Norte 6 Nordeste 0 -- -- 89
2017-08-29 01:00:00 22.3 0 Calma 4 Norte 0 -- -- 88
2017-08-29 00:00:00 22.7 0 Calma 5 Oeste 0 -- -- 87
2017-08-28 23:00:00 23.6 2 Oeste 18 Oeste 0 -- -- 82
2017-08-28 22:00:00 24.5 4 Oeste 9 Oeste 0 -- -- 80
2017-08-28 21:00:00 25.1 0 Calma 3 Este 0 -- -- 77
2017-08-28 20:00:00 25.3 0 Calma 12 Sudoeste 0 -- -- 75
2017-08-28 19:00:00 25.8 0 Calma 10 Sudoeste 0 -- -- 74
2017-08-28 18:00:00 25.7 4 Oeste 9 Sur 0 -- -- 76
2017-08-28 17:00:00 25.7 3 Sudeste 13 Sur 0 -- -- 76
2017-08-28 16:00:00 26.4 7 Sur 21 Sur 0 -- -- 74
2017-08-28 15:00:00 26.1 8 Sudeste 21 Sur 0.2 -- -- 75
2017-08-28 14:00:00 26.5 15 Sur 27 Sur 0 -- -- 71
2017-08-28 13:00:00 25.6 9 Sudeste 32 Sudeste 0.2 -- -- 77
2017-08-28 12:00:00 25.8 13 Sudeste 33 Sudeste 0.2 -- -- 78
2017-08-28 11:00:00 25.9 15 Este 38 Sudeste 0 -- -- 77
2017-08-28 10:00:00 25.1 10 Sudeste 22 Este 0 -- -- 84
2017-08-28 09:00:00 24.6 3 Sudeste 8 Nordeste 0 -- -- 94
2017-08-28 08:00:00 24.4 2 Noroeste 8 Sur 0 -- -- 92
2017-08-28 07:00:00 24.7 6 Sur 12 Sudeste 0 -- -- 89
2017-08-28 06:00:00 24.6 8 Este 21 Sudeste 0 -- -- 89
2017-08-28 05:00:00 24.2 5 Nordeste 14 Sudoeste 0 -- -- 91
2017-08-28 04:00:00 24.7 5 Sur 16 Este 0 -- -- 80
2017-08-28 03:00:00 24.7 2 Sudeste 30 Sudeste 0.4 -- -- 92
2017-08-28 02:00:00 24.8 12 Este 41 Sur 9 -- -- 93
2017-08-28 01:00:00 25.7 12 Sudeste 26 Sudeste 0.2 -- -- 90
2017-08-28 00:00:00 25.6 13 Sudeste 36 Sudeste 0 -- -- 88
2017-08-27 23:00:00 25.9 10 Sudeste 27 Sudeste 0 -- -- 85
2017-08-27 22:00:00 25.6 6 Sudeste 13 Sudeste 0 -- -- 84
2017-08-27 21:00:00 26.2 7 Sur 13 Sur 0 -- -- 82
2017-08-27 20:00:00 26.9 8 Sur 20 Sur 0 -- -- 79
2017-08-27 19:00:00 27.8 9 Sur 28 Sur 0 -- -- 80
2017-08-27 18:00:00 28.7 18 Sur 35 Sudeste 0 -- -- 75
2017-08-27 17:00:00 29.6 17 Sur 30 Sudeste 0 -- -- 69
2017-08-27 16:00:00 28.5 9 Sur 18 Sudoeste 0 -- -- 74
2017-08-27 15:00:00 28.5 4 Sudoeste 10 Sudoeste 0.2 -- -- 79
2017-08-27 14:00:00 26.8 8 Sur 24 Sur 0 -- -- 83
2017-08-27 13:00:00 27 12 Sudeste 28 Sur 0 -- -- 82
2017-08-27 12:00:00 27 10 Sudeste 18 Este 0 -- -- 85
2017-08-27 11:00:00 26.1 14 Oeste 22 Oeste 0 -- -- 87
2017-08-27 10:00:00 26.5 9 Sudeste 19 Sur 0 -- -- 84
2017-08-27 09:00:00 24.3 2 Nordeste 7 Sudeste 0 -- -- 92
2017-08-27 08:00:00 24.3 3 Sudeste 14 Este 0 -- -- 86
2017-08-27 07:00:00 24.3 3 Sudeste 14 Noroeste 0 -- -- 88
2017-08-27 06:00:00 24.6 0 Calma 12 Norte 0 -- -- 85
2017-08-27 05:00:00 24.3 2 Nordeste 6 Nordeste 0 -- -- 89
2017-08-27 04:00:00 24.4 4 Nordeste 12 Noroeste 0 -- -- 88
2017-08-27 03:00:00 24.5 4 Norte 10 Nordeste 0 -- -- 88
2017-08-27 02:00:00 24.8 0 Calma 9 Sudeste 0 -- -- 84
2017-08-27 01:00:00 25.2 3 Norte 17 Noroeste 0 -- -- 86
2017-08-27 00:00:00 25.5 4 Norte 13 Sur 0 -- -- 84
2017-08-26 23:00:00 25.7 6 Sudeste 22 Sur 0 -- -- 86
2017-08-26 22:00:00 25.8 4 Sudoeste 10 Sur 0 -- -- 85
2017-08-26 21:00:00 26 5 Sudoeste 12 Sudoeste 0 -- -- 84
2017-08-26 20:00:00 26.6 6 Sur 13 Sudoeste 0 -- -- 81
2017-08-26 19:00:00 27.5 9 Sur 17 Sudoeste 0 -- -- 77
2017-08-26 18:00:00 28.7 12 Sur 22 Sur 0 -- -- 73
2017-08-26 17:00:00 29 14 Sur 21 Sur 0 -- -- 73
2017-08-26 16:00:00 29.2 9 Sudoeste 18 Sur 0 -- -- 71
2017-08-26 15:00:00 28.9 13 Sur 22 Sur 0 -- -- 71
2017-08-26 14:00:00 28.8 13 Sur 19 Sur 0 -- -- 71
2017-08-26 13:00:00 28.6 9 Sur 18 Sur 0 -- -- 71
2017-08-26 12:00:00 28.9 12 Sur 18 Sur 0 -- -- 69
2017-08-26 11:00:00 27.9 7 Sur 16 Sur 0 -- -- 71
2017-08-26 10:00:00 25.8 3 Sudoeste 8 Sur 0 -- -- 82
2017-08-26 09:00:00 23.3 2 Nordeste 8 Nordeste 0 -- -- 88
2017-08-26 08:00:00 21.9 5 Nordeste 6 Nordeste 0 -- -- 85
2017-08-26 07:00:00 21.7 0 Calma 9 Noroeste 0 -- -- 82
2017-08-26 06:00:00 22.5 7 Norte 14 Norte 0 -- -- 87
2017-08-26 05:00:00 23.1 3 Nordeste 8 Norte 0 -- -- 90
2017-08-26 04:00:00 24.1 0 Calma 4 Este 0 -- -- 89
2017-08-26 03:00:00 24 3 Sudeste 4 Norte 0 -- -- 87
2017-08-26 02:00:00 24.1 3 Nordeste 5 Nordeste 0 -- -- 87
2017-08-26 01:00:00 24.7 2 Este 10 Sudeste 0 -- -- 88
2017-08-26 00:00:00 24.9 10 Sur 24 Sur 0 -- -- 90